Aviation Digital Data Service (ADDS)

Output produced by METARs form (0748 UTC 20 January 2017)
found at http://aviationweather.gov/adds/metars/
 
KBHB 200520Z 2006/2106 33003KT P6SM OVC050 
     FM201200 34004KT P6SM SCT050 BKN120